Time;durP1;ratioP1;P1;durP2;ratioP2;P2;SDS_P1;SDS_P2;PMS_P1;PMS_P2;Temp;Humidity;BMP_temperature;BMP_pressure;BME280_temperature;BME280_humidity;BME280_pressure;Samples;Min_cycle;Max_cycle;Signal;HPM_P1;HPM_P2
2023/04/04 00:00:35;;;;;;;8.70;3.60;;;;;;;-1.08;71.32;99229.32;104934;1259;97249;-67
2023/04/04 00:03:03;;;;;;;5.80;2.60;;;;;;;-1.12;71.52;99226.00;104879;1259;96549;-66
2023/04/04 00:05:30;;;;;;;5.70;3.10;;;;;;;-1.18;71.96;99223.00;104930;1259;96995;-67
2023/04/04 00:07:57;;;;;;;8.40;3.80;;;;;;;-1.23;72.28;99219.23;104782;1259;96585;-67
2023/04/04 00:10:24;;;;;;;9.30;4.40;;;;;;;-1.29;72.31;99217.02;104886;1259;96582;-68
2023/04/04 00:12:51;;;;;;;5.40;2.60;;;;;;;-1.28;72.28;99218.05;104881;1259;96632;-67
2023/04/04 00:15:19;;;;;;;8.90;3.90;;;;;;;-1.27;72.11;99213.73;105040;1261;97874;-69
2023/04/04 00:17:48;;;;;;;6.90;3.20;;;;;;;-1.26;72.01;99215.55;105014;1257;97842;-66
2023/04/04 00:20:16;;;;;;;8.30;3.20;;;;;;;-1.29;72.45;99215.70;105037;1259;97473;-69
2023/04/04 00:22:44;;;;;;;7.60;4.10;;;;;;;-1.33;72.77;99213.05;104963;1259;96551;-67
2023/04/04 00:25:11;;;;;;;6.40;3.30;;;;;;;-1.35;72.67;99210.59;104985;1259;96538;-68
2023/04/04 00:27:38;;;;;;;6.80;3.40;;;;;;;-1.40;72.75;99209.80;104931;1259;97852;-67
2023/04/04 00:30:06;;;;;;;11.40;4.30;;;;;;;-1.42;72.91;99209.29;104940;1259;97347;-68
2023/04/04 00:32:32;;;;;;;9.00;4.10;;;;;;;-1.47;73.07;99211.17;104870;1269;96581;-68
2023/04/04 00:35:00;;;;;;;7.40;3.10;;;;;;;-1.52;73.54;99201.55;104790;1259;96981;-68
2023/04/04 00:37:27;;;;;;;7.70;3.00;;;;;;;-1.56;73.61;99206.60;104820;1259;96517;-69
2023/04/04 00:39:54;;;;;;;7.60;3.70;;;;;;;-1.60;73.69;99203.16;104940;1259;96557;-66
2023/04/04 00:42:21;;;;;;;12.40;5.30;;;;;;;-1.63;74.06;99204.55;104948;1259;97458;-66
2023/04/04 00:44:51;;;;;;;6.70;3.00;;;;;;;-1.67;74.48;99205.65;104922;1271;97158;-67
2023/04/04 00:47:22;;;;;;;8.80;4.00;;;;;;;-1.70;74.41;99204.44;104796;1264;108292;-66
2023/04/04 00:49:49;;;;;;;10.00;5.10;;;;;;;-1.72;74.62;99203.51;104913;1262;98040;-67
2023/04/04 00:52:16;;;;;;;10.90;4.30;;;;;;;-1.72;74.55;99204.55;104992;1259;96556;-68
2023/04/04 00:54:43;;;;;;;9.40;4.30;;;;;;;-1.73;74.52;99205.48;104906;1259;96647;-67
2023/04/04 00:57:10;;;;;;;7.00;3.50;;;;;;;-1.73;74.38;99210.77;104890;1257;96641;-68
2023/04/04 00:59:38;;;;;;;10.10;5.20;;;;;;;-1.77;74.56;99212.50;104902;1259;96555;-68
2023/04/04 01:02:05;;;;;;;15.90;5.60;;;;;;;-1.82;74.54;99208.41;104907;1259;96590;-67
2023/04/04 01:04:32;;;;;;;10.80;5.00;;;;;;;-1.89;74.84;99210.62;104870;1260;97433;-67
2023/04/04 01:07:00;;;;;;;7.90;4.10;;;;;;;-1.94;75.48;99212.42;105023;1257;97173;-68
2023/04/04 01:09:27;;;;;;;11.40;4.40;;;;;;;-1.97;75.36;99208.56;104819;1259;96918;-67
2023/04/04 01:11:56;;;;;;;14.10;5.40;;;;;;;-1.98;75.48;99211.05;104883;1260;96556;-68
2023/04/04 01:14:23;;;;;;;12.80;5.30;;;;;;;-1.98;75.28;99212.17;105013;1259;97849;-67
2023/04/04 01:16:51;;;;;;;14.10;6.30;;;;;;;-1.97;75.41;99211.13;104850;1259;96632;-67
2023/04/04 01:19:31;;;;;;;9.10;4.20;;;;;;;-1.97;74.98;99211.54;104964;1259;97028;-68
2023/04/04 01:22:00;;;;;;;9.80;4.10;;;;;;;-1.99;75.50;99216.23;105009;1259;99141;-67
2023/04/04 01:24:32;;;;;;;9.80;3.60;;;;;;;-2.03;75.68;99216.16;104768;1262;107323;-67
2023/04/04 01:26:59;;;;;;;6.00;3.20;;;;;;;-2.08;75.81;99213.26;104756;1262;96632;-66
2023/04/04 01:29:26;;;;;;;6.60;3.40;;;;;;;-2.12;76.10;99214.36;104712;1266;96565;-66
2023/04/04 01:32:03;;;;;;;10.10;4.80;;;;;;;-2.14;75.90;99214.50;104906;1269;96983;-66
2023/04/04 01:34:56;;;;;;;7.60;3.90;;;;;;;-2.19;76.18;99212.09;104944;1259;99406;-70
2023/04/04 01:37:39;;;;;;;7.30;3.40;;;;;;;-2.22;76.36;99215.21;104965;1268;108546;-68
2023/04/04 01:40:19;;;;;;;9.20;3.60;;;;;;;-2.23;76.58;99220.05;104742;1266;97468;-67
2023/04/04 01:42:48;;;;;;;9.00;4.70;;;;;;;-2.24;76.62;99220.50;104758;1259;96461;-67
2023/04/04 01:45:15;;;;;;;6.50;3.60;;;;;;;-2.25;76.64;99218.27;104783;1266;110853;-67
2023/04/04 01:47:42;;;;;;;8.80;4.10;;;;;;;-2.26;76.50;99221.16;104854;1261;97863;-67
2023/04/04 01:50:10;;;;;;;7.70;3.90;;;;;;;-2.27;76.32;99221.64;104877;1260;108573;-68
2023/04/04 01:52:37;;;;;;;7.70;3.40;;;;;;;-2.29;76.44;99220.79;104777;1262;96652;-67
2023/04/04 01:55:05;;;;;;;7.40;3.60;;;;;;;-2.33;76.72;99217.11;104814;1262;96694;-66
2023/04/04 01:57:32;;;;;;;14.10;5.60;;;;;;;-2.39;76.96;99216.70;104764;1259;96577;-66
2023/04/04 01:59:59;;;;;;;9.80;4.80;;;;;;;-2.40;76.98;99218.77;104760;1259;96588;-66
2023/04/04 02:02:26;;;;;;;9.40;4.80;;;;;;;-2.42;77.23;99219.69;104971;1259;96965;-67
2023/04/04 02:04:57;;;;;;;8.40;3.90;;;;;;;-2.42;77.22;99221.34;104674;1262;96724;-68
2023/04/04 02:07:25;;;;;;;7.80;3.30;;;;;;;-2.40;77.05;99220.55;104875;1263;97841;-67
2023/04/04 02:09:55;;;;;;;6.20;2.80;;;;;;;-2.41;77.14;99220.30;104948;1259;109310;-66
2023/04/04 02:12:25;;;;;;;10.20;4.60;;;;;;;-2.43;77.41;99222.75;104659;1263;98244;-66
2023/04/04 02:14:58;;;;;;;5.40;2.70;;;;;;;-2.45;77.37;99221.11;104910;1259;108444;-68
2023/04/04 02:17:27;;;;;;;6.40;3.00;;;;;;;-2.49;77.61;99222.16;104992;1260;96590;-67
2023/04/04 02:19:57;;;;;;;7.90;2.60;;;;;;;-2.54;77.54;99221.89;104717;1263;97458;-66
2023/04/04 02:22:26;;;;;;;4.90;2.50;;;;;;;-2.57;77.76;99220.21;104753;1257;110019;-67
2023/04/04 02:24:53;;;;;;;12.90;4.90;;;;;;;-2.60;77.91;99218.36;104978;1259;96541;-68
2023/04/04 02:27:20;;;;;;;12.40;6.50;;;;;;;-2.65;78.16;99220.89;105029;1259;96634;-67
2023/04/04 02:29:47;;;;;;;7.10;2.80;;;;;;;-2.63;77.96;99220.52;104960;1269;96542;-68
2023/04/04 02:32:14;;;;;;;5.10;3.00;;;;;;;-2.60;77.95;99223.02;104930;1259;96607;-68
2023/04/04 02:34:42;;;;;;;10.80;4.30;;;;;;;-2.61;78.20;99227.36;104945;1260;97454;-68
2023/04/04 02:37:09;;;;;;;11.30;4.50;;;;;;;-2.60;78.06;99225.14;104951;1267;96561;-67
2023/04/04 02:39:35;;;;;;;9.70;5.50;;;;;;;-2.58;77.76;99225.91;104816;1260;96667;-67
2023/04/04 02:42:03;;;;;;;11.70;5.20;;;;;;;-2.57;77.90;99229.29;104909;1269;97258;-68
2023/04/04 02:44:30;;;;;;;6.10;3.30;;;;;;;-2.60;77.94;99229.52;104918;1257;96552;-68
2023/04/04 02:46:57;;;;;;;8.70;3.90;;;;;;;-2.65;78.43;99230.07;104967;1257;96619;-67
2023/04/04 02:49:24;;;;;;;8.70;4.10;;;;;;;-2.69;78.21;99230.38;104718;1259;97837;-67
2023/04/04 02:51:53;;;;;;;9.60;3.90;;;;;;;-2.72;78.62;99225.88;104904;1273;96562;-72
2023/04/04 02:54:20;;;;;;;11.20;5.40;;;;;;;-2.74;78.72;99226.34;104886;1257;97006;-70
2023/04/04 02:56:47;;;;;;;9.60;4.80;;;;;;;-2.75;78.43;99228.15;104724;1259;97950;-68
2023/04/04 02:59:14;;;;;;;9.60;4.60;;;;;;;-2.75;78.66;99227.63;104955;1269;97236;-67
2023/04/04 03:01:41;;;;;;;10.10;5.00;;;;;;;-2.74;78.24;99230.39;104942;1257;97764;-68
2023/04/04 03:04:10;;;;;;;11.80;5.00;;;;;;;-2.74;78.27;99229.52;104880;1258;97448;-68
2023/04/04 03:06:38;;;;;;;10.90;5.40;;;;;;;-2.76;78.45;99231.19;104870;1257;96513;-66
2023/04/04 03:09:06;;;;;;;17.70;6.10;;;;;;;-2.79;78.42;99231.61;104753;1259;110912;-67
2023/04/04 03:11:33;;;;;;;16.00;6.90;;;;;;;-2.82;78.30;99233.10;104735;1262;98778;-67
2023/04/04 03:14:01;;;;;;;9.80;4.70;;;;;;;-2.85;78.49;99231.75;104916;1260;96545;-67
2023/04/04 03:16:28;;;;;;;12.10;5.20;;;;;;;-2.90;78.56;99230.77;104875;1259;96623;-66
2023/04/04 03:18:56;;;;;;;10.20;5.10;;;;;;;-2.95;78.91;99228.40;104973;1269;96479;-68
2023/04/04 03:21:23;;;;;;;11.90;5.60;;;;;;;-2.97;79.03;99226.17;105008;1270;96558;-66
2023/04/04 03:23:50;;;;;;;12.30;6.10;;;;;;;-2.98;78.80;99221.55;104972;1260;96513;-68
2023/04/04 03:26:20;;;;;;;13.20;7.10;;;;;;;-2.99;79.01;99225.39;104861;1271;96991;-66
2023/04/04 03:28:49;;;;;;;8.10;3.80;;;;;;;-2.98;78.88;99221.27;104970;1256;96538;-66
2023/04/04 03:31:17;;;;;;;12.40;5.60;;;;;;;-2.96;78.98;99221.59;104997;1259;96614;-68
2023/04/04 03:33:44;;;;;;;9.60;3.50;;;;;;;-2.95;78.69;99222.34;104987;1261;96558;-69
2023/04/04 03:36:12;;;;;;;9.10;3.20;;;;;;;-2.97;78.69;99224.07;104977;1259;98020;-67
2023/04/04 03:38:40;;;;;;;9.20;4.50;;;;;;;-2.99;78.70;99222.23;105010;1261;108738;-65
2023/04/04 03:41:07;;;;;;;10.80;4.10;;;;;;;-3.01;78.80;99221.89;104979;1269;96603;-66
2023/04/04 03:43:35;;;;;;;7.30;3.30;;;;;;;-3.06;79.00;99215.01;104898;1263;96647;-66
2023/04/04 03:46:03;;;;;;;11.90;5.40;;;;;;;-3.08;79.08;99215.05;104872;1259;96539;-67
2023/04/04 03:48:30;;;;;;;7.70;4.30;;;;;;;-3.09;79.28;99218.08;104917;1259;99004;-65
2023/04/04 03:50:58;;;;;;;8.20;4.00;;;;;;;-3.09;79.47;99216.17;104945;1259;96594;-65
2023/04/04 03:53:25;;;;;;;9.30;4.90;;;;;;;-3.10;79.55;99218.02;105028;1259;96634;-66
2023/04/04 03:55:55;;;;;;;9.70;4.50;;;;;;;-3.10;79.62;99216.95;104995;1259;97074;-67
2023/04/04 03:58:23;;;;;;;5.60;3.20;;;;;;;-3.07;79.67;99215.55;104936;1260;109486;-66
2023/04/04 04:00:50;;;;;;;9.60;3.60;;;;;;;-3.03;79.48;99218.52;104929;1263;98170;-68
2023/04/04 04:03:16;;;;;;;8.00;3.30;;;;;;;-2.99;79.32;99215.33;104964;1260;96648;-66
2023/04/04 04:05:44;;;;;;;7.70;3.80;;;;;;;-2.96;79.18;99217.27;104925;1272;96626;-66
2023/04/04 04:08:11;;;;;;;5.80;2.70;;;;;;;-2.94;78.98;99219.69;104949;1259;97880;-66
2023/04/04 04:10:38;;;;;;;13.70;4.00;;;;;;;-2.95;79.08;99218.25;104890;1269;96666;-68
2023/04/04 04:13:05;;;;;;;6.40;3.90;;;;;;;-3.01;79.24;99216.69;104911;1259;96484;-71
2023/04/04 04:15:32;;;;;;;11.20;5.50;;;;;;;-3.06;79.39;99214.68;104770;1260;96670;-71
2023/04/04 04:17:59;;;;;;;11.80;6.00;;;;;;;-3.06;79.48;99217.52;104970;1271;97213;-66
2023/04/04 04:20:26;;;;;;;11.40;4.80;;;;;;;-3.05;79.32;99212.66;105066;1271;96663;-66
2023/04/04 04:22:53;;;;;;;9.40;4.00;;;;;;;-3.05;79.49;99210.58;104981;1259;99168;-66
2023/04/04 04:25:20;;;;;;;7.30;3.50;;;;;;;-3.08;79.41;99206.67;104971;1257;96561;-67
2023/04/04 04:27:47;;;;;;;8.80;4.60;;;;;;;-3.11;79.54;99210.16;105014;1257;96646;-67
2023/04/04 04:30:14;;;;;;;8.40;4.70;;;;;;;-3.14;79.29;99209.30;105034;1259;97874;-67
2023/04/04 04:32:41;;;;;;;10.00;4.50;;;;;;;-3.13;79.22;99211.93;104912;1273;97874;-67
2023/04/04 04:35:08;;;;;;;8.70;4.70;;;;;;;-3.17;79.30;99212.39;104879;1259;96545;-67
2023/04/04 04:37:36;;;;;;;16.00;4.70;;;;;;;-3.25;79.75;99207.91;104907;1270;97184;-67
2023/04/04 04:40:03;;;;;;;7.30;3.50;;;;;;;-3.27;80.01;99208.24;104911;1271;96558;-68
2023/04/04 04:42:30;;;;;;;7.40;3.80;;;;;;;-3.28;79.90;99209.41;104959;1257;96581;-68
2023/04/04 04:44:57;;;;;;;13.10;5.80;;;;;;;-3.28;79.84;99210.67;104852;1262;97873;-67
2023/04/04 04:47:24;;;;;;;14.20;6.30;;;;;;;-3.27;79.61;99210.68;104956;1270;97903;-67
2023/04/04 04:49:51;;;;;;;8.50;4.30;;;;;;;-3.26;79.69;99212.75;104883;1262;96549;-68
2023/04/04 04:52:18;;;;;;;9.00;4.10;;;;;;;-3.29;80.01;99215.76;105020;1270;96551;-68
2023/04/04 04:54:46;;;;;;;10.60;5.60;;;;;;;-3.33;80.25;99216.63;104695;1264;96702;-67
2023/04/04 04:57:13;;;;;;;11.80;5.40;;;;;;;-3.36;80.31;99214.98;104801;1262;98891;-68
2023/04/04 04:59:40;;;;;;;6.70;2.90;;;;;;;-3.38;80.59;99218.32;104851;1271;96546;-68
2023/04/04 05:02:07;;;;;;;6.50;2.80;;;;;;;-3.38;80.55;99217.70;104915;1259;96504;-67
2023/04/04 05:04:34;;;;;;;10.60;3.80;;;;;;;-3.37;80.71;99217.20;104823;1267;96610;-66
2023/04/04 05:07:02;;;;;;;25.40;10.80;;;;;;;-3.36;80.69;99219.45;104831;1263;96567;-67
2023/04/04 05:09:29;;;;;;;26.10;11.30;;;;;;;-3.35;80.77;99221.41;104824;1261;97787;-67
2023/04/04 05:11:56;;;;;;;19.30;6.20;;;;;;;-3.33;80.58;99219.23;104887;1261;97889;-67
2023/04/04 05:14:23;;;;;;;19.00;6.90;;;;;;;-3.34;80.64;99219.15;104924;1260;96548;-67
2023/04/04 05:16:50;;;;;;;15.90;6.60;;;;;;;-3.31;80.77;99218.61;104982;1263;96488;-67
2023/04/04 05:19:17;;;;;;;10.80;6.00;;;;;;;-3.26;80.74;99219.13;104903;1270;99265;-67
2023/04/04 05:21:44;;;;;;;22.40;11.10;;;;;;;-3.21;81.05;99219.30;104942;1260;97877;-68
2023/04/04 05:24:15;;;;;;;9.00;4.40;;;;;;;-3.12;81.03;99220.92;104832;1269;96545;-67
2023/04/04 05:26:54;;;;;;;16.40;8.10;;;;;;;-2.99;80.49;99218.70;104855;1260;97743;-66
2023/04/04 05:29:25;;;;;;;10.40;5.30;;;;;;;-2.83;80.29;99217.88;104719;1258;110410;-67
2023/04/04 05:31:52;;;;;;;6.30;3.40;;;;;;;-2.71;79.69;99218.21;104866;1259;96545;-67
2023/04/04 05:34:20;;;;;;;8.60;4.80;;;;;;;-2.60;79.23;99220.05;104809;1270;96570;-70
2023/04/04 05:36:47;;;;;;;17.00;7.40;;;;;;;-2.48;78.99;99220.73;104521;1259;378008;-68
2023/04/04 05:39:14;;;;;;;13.10;5.90;;;;;;;-2.38;78.62;99218.48;104991;1261;96568;-68
2023/04/04 05:41:41;;;;;;;8.90;4.20;;;;;;;-2.26;77.91;99224.48;104963;1260;96463;-68
2023/04/04 05:44:08;;;;;;;12.10;4.50;;;;;;;-2.20;77.17;99229.50;104997;1268;96587;-66
2023/04/04 05:46:35;;;;;;;11.30;4.10;;;;;;;-2.17;77.00;99231.04;104943;1267;96600;-66
2023/04/04 05:49:02;;;;;;;11.40;5.20;;;;;;;-2.07;76.98;99230.11;104961;1259;96631;-66
2023/04/04 05:51:29;;;;;;;9.70;4.00;;;;;;;-1.96;76.55;99230.09;104940;1269;96549;-67
2023/04/04 05:53:57;;;;;;;8.30;4.70;;;;;;;-1.90;76.28;99230.09;104894;1269;96656;-67
2023/04/04 05:56:24;;;;;;;12.30;6.20;;;;;;;-1.86;75.65;99234.80;104978;1262;96566;-67
2023/04/04 05:58:52;;;;;;;17.00;6.40;;;;;;;-1.84;75.16;99233.97;104934;1260;96536;-67
2023/04/04 06:01:19;;;;;;;16.70;6.70;;;;;;;-1.89;74.66;99233.06;104916;1257;96543;-66
2023/04/04 06:03:46;;;;;;;14.20;5.50;;;;;;;-1.75;75.49;99231.30;104959;1260;96565;-67
2023/04/04 06:06:13;;;;;;;26.50;8.50;;;;;;;-1.55;74.23;99232.97;104949;1270;97089;-67
2023/04/04 06:08:40;;;;;;;33.40;11.10;;;;;;;-1.43;73.86;99235.88;104940;1269;96995;-67
2023/04/04 06:11:22;;;;;;;23.10;9.20;;;;;;;-1.20;73.53;99233.79;104857;1273;97309;-67
2023/04/04 06:13:51;;;;;;;26.80;11.50;;;;;;;-1.10;72.31;99235.43;104991;1260;96546;-68
2023/04/04 06:16:18;;;;;;;17.70;7.40;;;;;;;-0.98;72.53;99235.92;104977;1260;110805;-67
2023/04/04 06:18:46;;;;;;;18.50;7.40;;;;;;;-0.99;71.04;99237.05;104996;1261;96536;-67
2023/04/04 06:21:13;;;;;;;11.00;5.20;;;;;;;-1.13;70.82;99236.58;104798;1273;107329;-68
2023/04/04 06:23:40;;;;;;;14.20;5.90;;;;;;;-1.29;71.21;99240.84;104956;1258;96563;-67
2023/04/04 06:26:07;;;;;;;16.30;7.80;;;;;;;-1.37;71.59;99242.95;104973;1260;97467;-68
2023/04/04 06:28:35;;;;;;;23.10;10.70;;;;;;;-1.36;71.43;99241.58;104966;1263;97178;-68
2023/04/04 06:31:05;;;;;;;14.90;6.90;;;;;;;-1.40;71.18;99236.78;105038;1260;96583;-67
2023/04/04 06:33:32;;;;;;;12.50;6.20;;;;;;;-1.42;71.72;99238.66;104600;1273;107809;-68
2023/04/04 06:35:59;;;;;;;18.40;9.20;;;;;;;-1.37;71.01;99233.73;104906;1270;96564;-68
2023/04/04 06:38:28;;;;;;;33.70;9.60;;;;;;;-1.38;70.21;99232.58;104978;1270;96523;-68
2023/04/04 06:40:56;;;;;;;23.50;6.30;;;;;;;-1.39;69.99;99234.83;104742;1264;110435;-68
2023/04/04 06:43:24;;;;;;;30.00;6.40;;;;;;;-1.40;68.94;99233.96;104875;1272;98111;-67
2023/04/04 06:45:51;;;;;;;10.30;4.50;;;;;;;-1.32;69.53;99233.60;104826;1263;96638;-66
2023/04/04 06:48:18;;;;;;;12.40;3.90;;;;;;;-1.27;68.15;99240.45;104839;1269;97471;-67
2023/04/04 06:50:46;;;;;;;7.70;3.00;;;;;;;-1.27;68.05;99237.51;104978;1259;96555;-68
2023/04/04 06:53:13;;;;;;;33.60;6.90;;;;;;;-1.22;68.69;99237.02;104837;1260;96561;-68
2023/04/04 06:55:41;;;;;;;14.20;4.40;;;;;;;-0.94;68.51;99238.81;105000;1264;96565;-70
2023/04/04 06:58:08;;;;;;;7.50;2.90;;;;;;;-0.71;66.51;99235.17;104911;1260;98020;-69
2023/04/04 07:00:35;;;;;;;10.80;3.90;;;;;;;-0.71;65.89;99236.63;104962;1269;96644;-67
2023/04/04 07:03:03;;;;;;;9.00;3.10;;;;;;;-0.67;65.45;99239.69;105007;1270;96546;-66
2023/04/04 07:05:31;;;;;;;5.30;2.40;;;;;;;-0.62;65.26;99234.45;104927;1262;96636;-65
2023/04/04 07:07:58;;;;;;;10.50;4.10;;;;;;;-0.48;65.35;99241.95;104679;1273;97932;-66
2023/04/04 07:10:25;;;;;;;26.60;6.70;;;;;;;-0.29;64.94;99237.30;104951;1270;97534;-66
2023/04/04 07:12:53;;;;;;;6.00;2.90;;;;;;;-0.20;63.54;99235.91;104799;1270;97442;-68
2023/04/04 07:15:20;;;;;;;28.20;8.00;;;;;;;-0.17;63.82;99241.92;104900;1270;96536;-68
2023/04/04 07:17:46;;;;;;;26.60;5.40;;;;;;;-0.04;64.05;99240.33;104817;1260;96545;-66
2023/04/04 07:20:14;;;;;;;13.90;4.20;;;;;;;-0.08;63.48;99240.01;104988;1267;97845;-68
2023/04/04 07:22:43;;;;;;;6.80;3.10;;;;;;;-0.05;63.12;99237.67;104735;1273;96679;-67
2023/04/04 07:25:12;;;;;;;30.70;8.40;;;;;;;-0.01;62.98;99235.90;105011;1270;98002;-66
2023/04/04 07:27:42;;;;;;;9.00;4.00;;;;;;;0.15;63.03;99230.73;104911;1262;97741;-66
2023/04/04 07:30:10;;;;;;;29.80;9.00;;;;;;;0.30;63.47;99233.44;104951;1267;111311;-67
2023/04/04 07:32:37;;;;;;;25.40;8.70;;;;;;;0.58;63.25;99235.05;105038;1267;98944;-67
2023/04/04 07:35:06;;;;;;;23.30;6.90;;;;;;;0.66;61.65;99237.93;104920;1268;108076;-67
2023/04/04 07:37:37;;;;;;;17.40;7.60;;;;;;;0.64;61.64;99240.52;105030;1269;96551;-67
2023/04/04 07:40:07;;;;;;;28.30;9.10;;;;;;;0.58;60.89;99238.61;104857;1262;96757;-67
2023/04/04 07:42:34;;;;;;;10.70;5.10;;;;;;;0.64;61.62;99238.59;104774;1273;109389;-68
2023/04/04 07:45:01;;;;;;;20.20;7.20;;;;;;;0.59;60.10;99239.78;105016;1269;97902;-68
2023/04/04 07:47:29;;;;;;;10.50;4.00;;;;;;;0.49;60.10;99239.65;104827;1273;108174;-68
2023/04/04 07:49:56;;;;;;;7.50;2.70;;;;;;;0.36;60.46;99244.34;105035;1260;96548;-68
2023/04/04 07:52:23;;;;;;;14.10;4.90;;;;;;;0.20;60.43;99239.28;104991;1268;96484;-67
2023/04/04 07:54:51;;;;;;;6.30;2.20;;;;;;;0.19;61.06;99233.49;104996;1263;96490;-67
2023/04/04 07:57:19;;;;;;;7.50;3.00;;;;;;;0.32;61.00;99232.39;104963;1260;96584;-67
2023/04/04 07:59:46;;;;;;;14.20;3.40;;;;;;;0.66;60.92;99235.89;105289;1267;108694;-68
2023/04/04 08:02:13;;;;;;;12.00;4.50;;;;;;;0.99;59.84;99234.53;104930;1260;96549;-67
2023/04/04 08:04:40;;;;;;;15.60;5.50;;;;;;;1.25;59.16;99233.63;105043;1259;96539;-68
2023/04/04 08:07:08;;;;;;;19.70;7.00;;;;;;;1.44;57.88;99235.27;105004;1270;96572;-67
2023/04/04 08:09:35;;;;;;;8.60;3.70;;;;;;;1.62;56.98;99234.46;104984;1261;97010;-67
2023/04/04 08:12:04;;;;;;;20.00;7.90;;;;;;;1.68;57.18;99233.61;104890;1260;96709;-67
2023/04/04 08:14:31;;;;;;;10.60;4.50;;;;;;;1.69;56.21;99230.67;104563;1267;96704;-67
2023/04/04 08:17:00;;;;;;;16.60;6.50;;;;;;;1.58;56.78;99234.41;104874;1262;96539;-69
2023/04/04 08:19:27;;;;;;;9.10;3.30;;;;;;;1.51;56.07;99233.14;104886;1268;110832;-68
2023/04/04 08:21:54;;;;;;;9.80;3.90;;;;;;;1.47;57.23;99225.92;104940;1270;96685;-67
2023/04/04 08:24:21;;;;;;;5.30;2.90;;;;;;;1.68;56.39;99226.11;104949;1270;96772;-67
2023/04/04 08:26:49;;;;;;;8.40;4.30;;;;;;;1.62;55.07;99227.78;104970;1268;96626;-67
2023/04/04 08:29:31;;;;;;;12.20;7.00;;;;;;;1.50;55.92;99230.52;104966;1270;97741;-67
2023/04/04 08:31:59;;;;;;;11.20;5.50;;;;;;;1.51;56.43;99227.30;104978;1260;111032;-67
2023/04/04 08:34:27;;;;;;;5.30;3.30;;;;;;;1.69;56.17;99226.44;104859;1273;98750;-68
2023/04/04 08:36:55;;;;;;;4.90;3.40;;;;;;;1.70;55.82;99227.28;104970;1267;108641;-68
2023/04/04 08:39:22;;;;;;;5.30;2.70;;;;;;;2.02;57.00;99219.44;104947;1260;96552;-67
2023/04/04 08:42:04;;;;;;;6.20;2.90;;;;;;;2.57;55.36;99218.88;104992;1260;97855;-67
2023/04/04 08:44:33;;;;;;;6.70;3.20;;;;;;;3.17;55.51;99213.11;104938;1258;110828;-67
2023/04/04 08:47:08;;;;;;;6.80;3.50;;;;;;;3.54;53.61;99207.27;104794;1273;97986;-67
2023/04/04 08:49:40;;;;;;;8.60;4.40;;;;;;;3.82;51.19;99205.99;105010;1270;108281;-67
2023/04/04 08:52:10;;;;;;;10.10;4.40;;;;;;;3.81;51.22;99205.55;105029;1270;96540;-67
2023/04/04 08:54:40;;;;;;;5.60;2.90;;;;;;;3.93;52.07;99204.00;105033;1259;97998;-69
2023/04/04 08:57:07;;;;;;;4.60;2.60;;;;;;;3.70;49.77;99209.40;104804;1273;109914;-68
2023/04/04 08:59:34;;;;;;;4.80;2.50;;;;;;;3.59;51.03;99206.98;104986;1260;96552;-68
2023/04/04 09:02:07;;;;;;;4.40;2.30;;;;;;;4.10;50.44;99201.77;104911;1270;96587;-67
2023/04/04 09:04:35;;;;;;;4.60;2.40;;;;;;;4.41;47.82;99198.95;104842;1269;97119;-67
2023/04/04 09:07:04;;;;;;;5.50;3.00;;;;;;;4.70;48.40;99200.55;104955;1258;97756;-67
2023/04/04 09:09:33;;;;;;;5.40;2.70;;;;;;;4.51;45.63;99193.42;104853;1272;110074;-68
2023/04/04 09:12:02;;;;;;;5.70;3.10;;;;;;;4.01;47.45;99196.00;104633;1267;98343;-67
2023/04/04 09:14:30;;;;;;;13.40;9.00;;;;;;;4.02;49.11;99195.90;104910;1266;107873;-67
2023/04/04 09:16:57;;;;;;;9.40;4.20;;;;;;;4.33;48.20;99192.30;104801;1261;96625;-67
2023/04/04 09:19:24;;;;;;;11.30;4.70;;;;;;;5.03;48.75;99189.98;104941;1257;97441;-67
2023/04/04 09:21:52;;;;;;;15.80;6.00;;;;;;;5.37;44.91;99193.25;104880;1261;96604;-67
2023/04/04 09:24:19;;;;;;;11.20;5.40;;;;;;;4.93;45.49;99201.85;104994;1260;96535;-67
2023/04/04 09:26:51;;;;;;;7.00;4.60;;;;;;;5.07;46.73;99196.70;104991;1270;96975;-67
2023/04/04 09:29:20;;;;;;;6.40;3.70;;;;;;;5.29;46.43;99195.88;104911;1269;96705;-67
2023/04/04 09:31:49;;;;;;;5.10;2.70;;;;;;;5.56;45.90;99193.32;105062;1260;96552;-67
2023/04/04 09:34:18;;;;;;;5.90;3.20;;;;;;;5.49;44.32;99191.17;104787;1271;111099;-67
2023/04/04 09:36:45;;;;;;;5.60;4.00;;;;;;;4.99;43.93;99195.85;105025;1260;98599;-68
2023/04/04 09:39:16;;;;;;;5.40;2.70;;;;;;;4.70;43.82;99195.55;104800;1270;108394;-71
2023/04/04 09:41:44;;;;;;;5.30;3.30;;;;;;;4.57;44.09;99194.06;104998;1260;96463;-67
2023/04/04 09:44:12;;;;;;;5.60;2.50;;;;;;;4.65;44.48;99191.89;105047;1270;97382;-67
2023/04/04 09:46:40;;;;;;;4.10;1.60;;;;;;;4.75;43.49;99194.79;105032;1270;110916;-67
2023/04/04 09:49:18;;;;;;;3.50;2.20;;;;;;;4.86;43.82;99198.55;104995;1260;99205;-67
2023/04/04 09:51:52;;;;;;;3.20;1.90;;;;;;;4.89;42.53;99203.34;104997;1260;108656;-67
2023/04/04 09:54:21;;;;;;;4.90;2.70;;;;;;;4.71;43.53;99193.40;104984;1270;96539;-67
2023/04/04 09:56:55;;;;;;;7.00;1.90;;;;;;;4.66;42.49;99194.13;104808;1260;96638;-67
2023/04/04 09:59:23;;;;;;;4.60;2.80;;;;;;;4.43;43.69;99188.64;105047;1260;96648;-67
2023/04/04 10:01:53;;;;;;;6.80;3.70;;;;;;;4.69;44.90;99193.21;105033;1261;96546;-67
2023/04/04 10:04:23;;;;;;;5.80;2.80;;;;;;;4.93;42.79;99194.95;105042;1273;108754;-67
2023/04/04 10:06:52;;;;;;;9.10;5.40;;;;;;;4.79;42.41;99189.54;105003;1260;97228;-67
2023/04/04 10:09:20;;;;;;;7.00;4.00;;;;;;;4.82;43.61;99191.18;104648;1264;96549;-67
2023/04/04 10:11:48;;;;;;;9.40;4.00;;;;;;;4.66;44.30;99188.37;105042;1257;111272;-67
2023/04/04 10:14:15;;;;;;;5.30;2.80;;;;;;;4.53;44.76;99187.52;104992;1269;98263;-68
2023/04/04 10:16:45;;;;;;;9.70;3.70;;;;;;;4.45;44.28;99183.92;104980;1267;96619;-66
2023/04/04 10:19:17;;;;;;;6.00;3.10;;;;;;;4.38;44.96;99183.35;104737;1273;96548;-67
2023/04/04 10:21:46;;;;;;;7.00;3.20;;;;;;;4.53;45.32;99184.15;105014;1261;96652;-67
2023/04/04 10:24:13;;;;;;;4.40;2.90;;;;;;;5.01;44.72;99181.08;105037;1260;111572;-67
2023/04/04 10:26:40;;;;;;;3.30;2.00;;;;;;;5.15;43.37;99188.59;104954;1259;96562;-68
2023/04/04 10:29:07;;;;;;;4.10;1.70;;;;;;;4.74;42.94;99187.55;104936;1261;97933;-68
2023/04/04 10:31:40;;;;;;;5.00;2.80;;;;;;;4.23;43.24;99181.16;104935;1260;96587;-68
2023/04/04 10:34:24;;;;;;;5.80;2.30;;;;;;;4.01;44.58;99180.53;104795;1259;97849;-66
2023/04/04 10:37:02;;;;;;;5.10;2.20;;;;;;;4.56;44.84;99176.78;104892;1268;110904;-67
2023/04/04 10:39:35;;;;;;;4.60;2.70;;;;;;;5.30;43.83;99170.00;104939;1259;99298;-67
2023/04/04 10:42:04;;;;;;;4.90;2.30;;;;;;;5.77;41.75;99172.33;104903;1257;108791;-67
2023/04/04 10:44:36;;;;;;;3.00;1.90;;;;;;;5.21;41.29;99171.77;105003;1260;97881;-67
2023/04/04 10:47:24;;;;;;;4.80;2.50;;;;;;;5.13;41.57;99174.40;104907;1260;96558;-68
2023/04/04 10:49:52;;;;;;;4.20;2.70;;;;;;;5.66;42.23;99176.70;104868;1262;109578;-67
2023/04/04 10:52:23;;;;;;;4.70;3.00;;;;;;;6.04;41.46;99178.65;104975;1270;98932;-68
2023/04/04 10:54:54;;;;;;;4.70;2.60;;;;;;;6.08;42.35;99177.83;104862;1260;108556;-67
2023/04/04 10:57:23;;;;;;;5.20;3.00;;;;;;;6.09;41.51;99181.77;104942;1270;96568;-67
2023/04/04 10:59:57;;;;;;;6.40;3.00;;;;;;;6.44;42.05;99170.43;105040;1257;97898;-73
2023/04/04 11:02:45;;;;;;;10.40;4.30;;;;;;;6.71;41.99;99169.30;104877;1260;110811;-68
2023/04/04 11:05:29;;;;;;;4.70;2.40;;;;;;;7.44;41.14;99161.70;104946;1260;99372;-68
2023/04/04 11:08:01;;;;;;;4.30;2.80;;;;;;;7.19;39.34;99158.26;104743;1263;108424;-68
2023/04/04 11:10:35;;;;;;;3.60;2.10;;;;;;;6.42;40.86;99160.91;104932;1261;96623;-67
2023/04/04 11:13:10;;;;;;;5.70;2.00;;;;;;;5.69;41.07;99165.63;104869;1264;96636;-68
2023/04/04 11:15:58;;;;;;;6.10;3.30;;;;;;;5.75;42.72;99170.20;104724;1267;110458;-68
2023/04/04 11:18:38;;;;;;;9.50;4.80;;;;;;;6.35;42.73;99165.60;104784;1260;97981;-67
2023/04/04 11:21:13;;;;;;;8.60;4.50;;;;;;;7.06;42.03;99155.74;104829;1266;108069;-69
2023/04/04 11:23:46;;;;;;;7.50;4.40;;;;;;;7.70;41.66;99151.41;104979;1261;96632;-66
2023/04/04 11:26:33;;;;;;;5.70;3.30;;;;;;;7.91;39.09;99149.52;104911;1260;96532;-67
2023/04/04 11:29:06;;;;;;;4.40;2.80;;;;;;;7.53;40.04;99151.63;104790;1263;110959;-66
2023/04/04 11:31:39;;;;;;;7.20;3.10;;;;;;;7.13;39.55;99153.32;104725;1273;97220;-66